LFSB METAR :   2017/04/26 23:00 LFSB 262300Z AUTO 33008KT 5000 -RA BR OVC005 04/04 Q1013 TEMPO BKN010

TAF  2017/04/26 18:21 TAF LFSB 261700Z 2618/2718 34006KT 9999 SCT010 BKN020 PROB40 TEMPO 2618/2708 4500 -RA BKN010 PROB40 TEMPO 2708/2712 4000 SHRA FEW030TCU